Big Mound, Illinois
Current Conditions -  °F | °C
As of 11:15 AM on Friday 28 Nov 2014 (Local Time) from KFWC Reporting Station
Clear Clear  
Wind Chill: 28°   Ceiling: Unl
Heat Index: 34°   Visibility: 10mi
Dew Point: 29°   Wind: 7mph
Humidity: 81%   Direction: 150°SSE
Pressure: 30.25"   Gusts: NA
Location:  38.3669°N, 88.3516°W
Report Text: KFWC 281715Z AUTO 15006KT 10SM CLR 01/M02 A3025 RMK AO1 T00131017
Loading
Personal Weather Stations






























Interactive Weather Map New forecast layout! Learn more

10-Day Weather Forecast

Advertisements
Track Severe Weather on mobile